createdAt,value
2019-05-19T00:02:17.378Z,9.40
2019-05-19T00:04:49.356Z,9.47
2019-05-19T00:07:21.352Z,9.60
2019-05-19T00:09:53.329Z,10.07
2019-05-19T00:12:25.324Z,9.33
2019-05-19T00:14:57.301Z,9.17
2019-05-19T00:17:29.273Z,9.07
2019-05-19T00:20:01.274Z,8.43
2019-05-19T00:22:33.238Z,8.13
2019-05-19T00:25:05.390Z,9.40
2019-05-19T00:27:37.397Z,8.77
2019-05-19T00:30:09.607Z,9.83
2019-05-19T00:32:41.610Z,9.93
2019-05-19T00:35:13.628Z,9.10
2019-05-19T00:37:45.606Z,9.30
2019-05-19T00:40:17.584Z,9.37
2019-05-19T00:42:49.558Z,8.87
2019-05-19T00:45:21.527Z,8.77
2019-05-19T00:47:53.527Z,8.70
2019-05-19T00:50:25.503Z,9.10
2019-05-19T00:52:57.495Z,8.77
2019-05-19T00:55:29.600Z,8.80
2019-05-19T00:58:01.679Z,8.33
2019-05-19T01:00:33.648Z,8.63
2019-05-19T01:03:05.637Z,9.50
2019-05-19T01:05:37.648Z,9.60
2019-05-19T01:08:09.685Z,8.77
2019-05-19T01:10:41.686Z,9.17
2019-05-19T01:13:13.672Z,8.80
2019-05-19T01:15:45.616Z,8.97
2019-05-19T01:18:17.630Z,8.93
2019-05-19T01:20:49.881Z,9.13
2019-05-19T01:23:21.861Z,8.67
2019-05-19T01:25:53.828Z,8.57
2019-05-19T01:28:25.855Z,9.47
2019-05-19T01:30:57.791Z,8.80
2019-05-19T01:33:30.568Z,8.23
2019-05-19T01:36:02.576Z,8.57
2019-05-19T01:38:34.561Z,9.97
2019-05-19T01:41:06.517Z,9.43
2019-05-19T01:43:38.485Z,9.43
2019-05-19T01:46:10.462Z,9.80
2019-05-19T01:48:42.427Z,8.87
2019-05-19T01:51:14.411Z,9.73
2019-05-19T01:53:46.383Z,9.80
2019-05-19T01:56:18.342Z,9.97
2019-05-19T01:58:50.311Z,9.70
2019-05-19T02:01:22.257Z,9.73
2019-05-19T02:03:54.239Z,9.87
2019-05-19T02:06:26.182Z,9.90
2019-05-19T02:08:58.174Z,9.90
2019-05-19T02:11:30.179Z,9.00
2019-05-19T02:14:02.268Z,9.90
2019-05-19T02:16:34.205Z,9.90
2019-05-19T02:19:06.198Z,9.60
2019-05-19T02:21:38.128Z,9.30
2019-05-19T02:24:10.118Z,9.17
2019-05-19T02:26:42.057Z,9.40
2019-05-19T02:29:14.027Z,9.40
2019-05-19T02:31:45.984Z,9.27
2019-05-19T02:34:17.980Z,9.57
2019-05-19T02:36:49.969Z,10.00
2019-05-19T02:39:21.927Z,9.70
2019-05-19T02:41:53.978Z,9.47
2019-05-19T02:44:26.677Z,9.93
2019-05-19T02:46:58.642Z,10.23
2019-05-19T02:49:31.846Z,10.23
2019-05-19T02:52:04.281Z,10.10
2019-05-19T02:54:36.274Z,13.00
2019-05-19T02:57:08.517Z,11.90
2019-05-19T02:59:40.653Z,11.13
2019-05-19T03:02:13.842Z,12.23
2019-05-19T03:04:45.820Z,11.87
2019-05-19T03:07:17.795Z,11.63
2019-05-19T03:09:50.103Z,10.97
2019-05-19T03:12:22.127Z,11.70
2019-05-19T03:14:54.090Z,12.97
2019-05-19T03:17:26.074Z,12.50
2019-05-19T03:19:58.048Z,12.90
2019-05-19T03:22:30.007Z,14.03
2019-05-19T03:25:01.995Z,14.10
2019-05-19T03:27:33.951Z,13.80
2019-05-19T03:30:26.070Z,13.47
2019-05-19T03:33:00.035Z,14.10
2019-05-19T03:35:32.073Z,14.77
2019-05-19T03:38:04.029Z,15.90
2019-05-19T03:40:35.971Z,14.67
2019-05-19T03:43:07.937Z,15.00
2019-05-19T03:45:40.068Z,15.57
2019-05-19T03:48:12.030Z,14.53
2019-05-19T03:50:43.977Z,16.87
2019-05-19T03:53:15.968Z,16.53
2019-05-19T03:55:47.926Z,13.03
2019-05-19T03:58:20.078Z,14.40
2019-05-19T04:00:52.102Z,14.93
2019-05-19T04:03:24.121Z,13.10
2019-05-19T04:05:56.107Z,13.47
2019-05-19T04:08:28.090Z,13.77
2019-05-19T04:11:00.082Z,16.13
2019-05-19T04:13:32.047Z,14.00
2019-05-19T04:16:03.991Z,14.57
2019-05-19T04:18:35.955Z,15.80
2019-05-19T04:21:07.931Z,14.40
2019-05-19T04:23:39.889Z,15.53
2019-05-19T04:26:11.847Z,14.87
2019-05-19T04:28:43.846Z,15.93
2019-05-19T04:31:15.817Z,15.90
2019-05-19T04:33:47.904Z,16.10
2019-05-19T04:36:19.955Z,19.77
2019-05-19T04:38:51.946Z,17.30
2019-05-19T04:41:23.915Z,16.47
2019-05-19T04:43:55.903Z,15.40
2019-05-19T04:46:27.909Z,13.90
2019-05-19T04:48:59.873Z,13.93
2019-05-19T04:51:31.987Z,14.40
2019-05-19T04:54:03.996Z,13.80
2019-05-19T04:56:35.963Z,13.30
2019-05-19T04:59:09.368Z,12.80
2019-05-19T05:01:41.380Z,13.80
2019-05-19T05:04:29.799Z,13.53
2019-05-19T05:07:01.862Z,12.60
2019-05-19T05:09:33.904Z,13.37
2019-05-19T05:12:05.830Z,12.77
2019-05-19T05:14:37.825Z,12.67
2019-05-19T05:17:09.758Z,12.57
2019-05-19T05:19:41.767Z,13.00
2019-05-19T05:22:21.630Z,13.50
2019-05-19T05:24:47.594Z,13.68
2019-05-19T05:27:19.565Z,13.20
2019-05-19T05:29:51.603Z,14.20
2019-05-19T05:32:23.595Z,12.73
2019-05-19T05:34:55.597Z,12.43
2019-05-19T05:37:27.573Z,11.63
2019-05-19T05:39:59.647Z,11.40
2019-05-19T05:42:32.134Z,10.95
2019-05-19T05:45:04.605Z,11.40
2019-05-19T05:47:36.615Z,11.03
2019-05-19T05:50:08.694Z,10.35
2019-05-19T05:52:40.680Z,10.78
2019-05-19T05:55:12.668Z,10.90
2019-05-19T05:57:44.670Z,13.22
2019-05-19T06:00:16.777Z,12.73
2019-05-19T06:02:48.770Z,12.98
2019-05-19T06:05:20.760Z,12.43
2019-05-19T06:07:52.706Z,12.82
2019-05-19T06:10:24.783Z,12.28
2019-05-19T06:12:56.816Z,12.35
2019-05-19T06:15:28.816Z,11.93
2019-05-19T06:18:00.784Z,12.68
2019-05-19T06:20:32.974Z,13.50
2019-05-19T06:23:05.020Z,14.07
2019-05-19T06:25:37.050Z,13.90
2019-05-19T06:28:09.084Z,14.47
2019-05-19T06:30:41.240Z,12.47
2019-05-19T06:33:13.241Z,13.75
2019-05-19T06:35:45.198Z,13.55
2019-05-19T06:38:17.307Z,14.65
2019-05-19T06:40:49.300Z,12.18
2019-05-19T06:43:21.317Z,14.45
2019-05-19T06:45:53.308Z,15.63
2019-05-19T06:48:25.311Z,12.73
2019-05-19T06:50:57.286Z,15.05
2019-05-19T06:53:29.267Z,13.18
2019-05-19T06:56:01.208Z,15.08
2019-05-19T06:58:33.205Z,14.10
2019-05-19T07:01:05.196Z,13.90
2019-05-19T07:03:37.266Z,12.25
2019-05-19T07:06:09.270Z,12.58
2019-05-19T07:08:43.688Z,14.00
2019-05-19T07:11:15.730Z,12.35
2019-05-19T07:13:47.789Z,13.05
2019-05-19T07:16:19.761Z,13.95
2019-05-19T07:18:51.752Z,12.28
2019-05-19T07:21:23.329Z,11.43
2019-05-19T07:23:55.274Z,11.63
2019-05-19T07:26:27.249Z,11.12
2019-05-19T07:28:59.248Z,13.68
2019-05-19T07:31:31.238Z,12.37
2019-05-19T07:34:03.290Z,12.90
2019-05-19T07:36:35.296Z,11.28
2019-05-19T07:39:07.312Z,10.53
2019-05-19T07:41:39.288Z,10.48
2019-05-19T07:44:11.301Z,9.95
2019-05-19T07:46:43.395Z,10.40
2019-05-19T07:49:15.418Z,9.60
2019-05-19T07:51:47.424Z,10.30
2019-05-19T07:54:19.452Z,8.85
2019-05-19T07:56:51.423Z,8.48
2019-05-19T07:59:23.525Z,7.90
2019-05-19T08:01:55.531Z,8.70
2019-05-19T08:04:27.545Z,8.93
2019-05-19T08:06:59.564Z,8.98
2019-05-19T08:09:31.544Z,10.50
2019-05-19T08:12:03.648Z,10.50
2019-05-19T08:14:35.611Z,9.63
2019-05-19T08:17:07.676Z,10.60
2019-05-19T08:19:39.691Z,9.78
2019-05-19T08:22:11.662Z,9.73
2019-05-19T08:24:43.700Z,9.85
2019-05-19T08:27:15.688Z,9.85
2019-05-19T08:29:47.731Z,8.10
2019-05-19T08:32:19.755Z,8.08
2019-05-19T08:34:51.775Z,8.38
2019-05-19T08:37:23.856Z,8.98
2019-05-19T08:39:55.881Z,8.25
2019-05-19T08:42:27.907Z,7.05
2019-05-19T08:44:59.956Z,7.65
2019-05-19T08:47:31.952Z,7.50
2019-05-19T08:50:04.595Z,8.00
2019-05-19T08:52:36.643Z,8.60
2019-05-19T08:55:08.654Z,7.33
2019-05-19T08:57:40.687Z,7.15
2019-05-19T09:00:13.498Z,6.67
2019-05-19T09:02:45.673Z,7.03
2019-05-19T09:05:17.735Z,7.00
2019-05-19T09:07:49.770Z,7.75
2019-05-19T09:10:21.770Z,7.55
2019-05-19T09:12:53.867Z,8.53
2019-05-19T09:15:25.889Z,7.03
2019-05-19T09:17:57.908Z,7.17
2019-05-19T09:20:29.881Z,6.37
2019-05-19T09:23:01.942Z,6.67
2019-05-19T09:25:33.960Z,6.78
2019-05-19T09:28:05.986Z,6.22
2019-05-19T09:30:38.084Z,6.58
2019-05-19T09:33:10.183Z,6.20
2019-05-19T09:35:42.179Z,5.92
2019-05-19T09:38:14.199Z,6.53
2019-05-19T09:40:46.228Z,6.10
2019-05-19T09:43:18.321Z,5.65
2019-05-19T09:45:50.315Z,6.37
2019-05-19T09:48:22.354Z,6.05
2019-05-19T09:50:54.334Z,5.75
2019-05-19T09:53:26.395Z,5.72
2019-05-19T09:55:58.455Z,5.72
2019-05-19T09:58:30.463Z,7.17
2019-05-19T10:01:02.543Z,6.42
2019-05-19T10:03:34.631Z,6.05
2019-05-19T10:06:06.627Z,6.83
2019-05-19T10:08:44.385Z,6.05
2019-05-19T10:12:05.035Z,7.08
2019-05-19T10:14:37.055Z,6.28
2019-05-19T10:17:09.044Z,6.75
2019-05-19T10:19:41.079Z,6.30
2019-05-19T10:22:13.215Z,7.33
2019-05-19T10:24:59.212Z,7.37
2019-05-19T10:27:21.624Z,16.27
2019-05-19T10:29:53.219Z,7.83
2019-05-19T10:32:25.193Z,6.42
2019-05-19T10:34:57.273Z,9.93
2019-05-19T10:37:29.264Z,6.62
2019-05-19T10:40:01.327Z,7.78
2019-05-19T10:42:33.539Z,7.15
2019-05-19T10:45:08.143Z,7.37
2019-05-19T10:47:40.088Z,7.12
2019-05-19T10:50:12.785Z,7.12
2019-05-19T10:52:44.937Z,6.83
2019-05-19T10:55:17.387Z,6.87
2019-05-19T10:57:49.361Z,7.10
2019-05-19T11:00:21.596Z,6.83
2019-05-19T11:02:53.597Z,7.65
2019-05-19T11:05:25.654Z,6.90
2019-05-19T11:07:57.620Z,7.70
2019-05-19T11:10:29.684Z,7.28
2019-05-19T11:13:01.713Z,13.32
2019-05-19T11:15:33.728Z,8.00
2019-05-19T11:18:06.556Z,9.65
2019-05-19T11:20:38.713Z,7.97
2019-05-19T11:23:10.706Z,7.75
2019-05-19T11:25:51.206Z,7.22
2019-05-19T11:28:16.680Z,6.80
2019-05-19T11:30:48.740Z,6.80
2019-05-19T11:33:20.780Z,6.90
2019-05-19T11:35:52.797Z,7.75
2019-05-19T11:38:24.858Z,7.37
2019-05-19T11:40:57.363Z,7.53
2019-05-19T11:43:29.427Z,7.95
2019-05-19T11:46:01.423Z,8.08
2019-05-19T11:48:33.453Z,8.25
2019-05-19T11:51:05.502Z,7.87
2019-05-19T11:53:37.504Z,8.15
2019-05-19T11:56:11.550Z,8.15
2019-05-19T11:58:43.537Z,8.18
2019-05-19T12:01:15.539Z,8.30
2019-05-19T12:03:47.575Z,8.10
2019-05-19T12:06:19.541Z,7.83
2019-05-19T12:08:51.567Z,7.80
2019-05-19T12:11:23.587Z,8.30
2019-05-19T12:13:55.601Z,8.55
2019-05-19T12:16:27.607Z,8.40
2019-05-19T12:18:59.643Z,9.05
2019-05-19T12:21:31.627Z,8.23
2019-05-19T12:24:03.705Z,8.58
2019-05-19T12:26:35.721Z,8.38
2019-05-19T12:29:07.795Z,8.85
2019-05-19T12:31:39.822Z,9.35
2019-05-19T12:34:11.887Z,8.70
2019-05-19T12:36:43.874Z,8.83
2019-05-19T12:39:15.939Z,7.87
2019-05-19T12:41:47.937Z,9.20
2019-05-19T12:44:19.955Z,8.68
2019-05-19T12:46:51.953Z,8.53
2019-05-19T12:49:23.964Z,8.15
2019-05-19T12:51:55.961Z,9.08
2019-05-19T12:54:27.999Z,7.55
2019-05-19T12:56:59.996Z,7.85
2019-05-19T12:59:32.029Z,8.03
2019-05-19T13:02:04.011Z,8.00
2019-05-19T13:04:36.077Z,8.08
2019-05-19T13:07:08.086Z,7.87
2019-05-19T13:09:40.097Z,7.72
2019-05-19T13:12:12.906Z,7.85
2019-05-19T13:14:44.927Z,6.97
2019-05-19T13:17:16.918Z,7.50
2019-05-19T13:19:49.067Z,6.50
2019-05-19T13:22:21.060Z,7.20
2019-05-19T13:24:53.116Z,7.00
2019-05-19T13:27:25.085Z,7.55
2019-05-19T13:29:57.091Z,7.40
2019-05-19T13:32:29.076Z,7.25
2019-05-19T13:35:01.109Z,7.15
2019-05-19T13:37:33.174Z,7.60
2019-05-19T13:40:05.152Z,6.60
2019-05-19T13:42:37.151Z,6.95
2019-05-19T13:45:09.499Z,6.92
2019-05-19T13:47:41.530Z,6.78
2019-05-19T13:50:13.551Z,7.42
2019-05-19T13:52:45.591Z,7.00
2019-05-19T13:55:17.617Z,6.75
2019-05-19T13:57:49.626Z,6.55
2019-05-19T14:00:21.622Z,7.08
2019-05-19T14:02:53.703Z,7.17
2019-05-19T14:05:25.682Z,6.37
2019-05-19T14:07:57.699Z,6.75
2019-05-19T14:10:29.729Z,6.60
2019-05-19T14:13:01.767Z,7.30
2019-05-19T14:15:33.796Z,6.50
2019-05-19T14:18:05.834Z,7.12
2019-05-19T14:20:37.839Z,7.00
2019-05-19T14:23:09.854Z,7.25
2019-05-19T14:25:41.861Z,6.65
2019-05-19T14:28:13.907Z,6.45
2019-05-19T14:30:46.017Z,6.15
2019-05-19T14:33:18.047Z,6.80
2019-05-19T14:35:50.061Z,6.58
2019-05-19T14:38:22.054Z,6.67
2019-05-19T14:40:54.097Z,6.28
2019-05-19T14:43:26.357Z,6.50
2019-05-19T14:45:58.378Z,5.87
2019-05-19T14:48:30.407Z,5.47
2019-05-19T14:51:02.534Z,5.00
2019-05-19T14:53:34.571Z,5.20
2019-05-19T14:56:06.568Z,4.55
2019-05-19T14:58:38.608Z,4.65
2019-05-19T15:01:10.636Z,4.40
2019-05-19T15:03:42.659Z,4.50
2019-05-19T15:06:14.689Z,6.65
2019-05-19T15:08:46.773Z,10.78
2019-05-19T15:11:18.881Z,9.10
2019-05-19T15:13:50.921Z,11.68
2019-05-19T15:16:22.919Z,9.25
2019-05-19T15:18:55.024Z,8.63
2019-05-19T15:21:27.075Z,8.23
2019-05-19T15:23:59.104Z,7.62
2019-05-19T15:26:31.114Z,7.17
2019-05-19T15:29:03.164Z,8.88
2019-05-19T15:31:35.395Z,7.47
2019-05-19T15:34:07.428Z,10.40
2019-05-19T15:36:39.452Z,9.60
2019-05-19T15:39:14.459Z,10.20
2019-05-19T15:41:45.560Z,9.30
2019-05-19T15:44:17.655Z,11.48
2019-05-19T15:46:49.681Z,9.15
2019-05-19T15:49:24.750Z,9.25
2019-05-19T15:52:03.301Z,8.90
2019-05-19T15:54:31.048Z,9.50
2019-05-19T15:57:03.125Z,9.98
2019-05-19T15:59:35.190Z,8.68
2019-05-19T16:02:07.297Z,8.18
2019-05-19T16:04:39.419Z,8.73
2019-05-19T16:07:11.537Z,8.65
2019-05-19T16:09:43.617Z,10.13
2019-05-19T16:12:15.697Z,10.58
2019-05-19T16:14:47.755Z,10.78
2019-05-19T16:17:19.783Z,9.28
2019-05-19T16:19:51.827Z,9.90
2019-05-19T16:22:23.873Z,9.88
2019-05-19T16:24:55.928Z,9.10
2019-05-19T16:27:27.950Z,9.35
2019-05-19T16:30:00.015Z,8.58
2019-05-19T16:32:32.045Z,8.08
2019-05-19T16:35:04.194Z,8.58
2019-05-19T16:37:36.304Z,8.98
2019-05-19T16:40:08.396Z,10.13
2019-05-19T16:42:40.609Z,9.50
2019-05-19T16:45:13.018Z,8.70
2019-05-19T16:47:45.045Z,9.90
2019-05-19T16:50:17.298Z,9.85
2019-05-19T16:52:49.741Z,13.75
2019-05-19T16:55:29.028Z,9.45
2019-05-19T16:58:01.036Z,10.23
2019-05-19T17:00:33.139Z,10.82
2019-05-19T17:03:05.281Z,9.73
2019-05-19T17:05:37.316Z,9.40
2019-05-19T17:08:09.484Z,8.25
2019-05-19T17:10:41.552Z,8.98
2019-05-19T17:13:13.644Z,8.98
2019-05-19T17:15:45.683Z,9.33
2019-05-19T17:18:17.789Z,8.98
2019-05-19T17:20:49.888Z,8.55
2019-05-19T17:23:21.997Z,9.43
2019-05-19T17:25:54.112Z,8.83
2019-05-19T17:28:26.127Z,9.80
2019-05-19T17:30:58.229Z,9.23
2019-05-19T17:33:30.301Z,8.80
2019-05-19T17:36:02.377Z,9.30
2019-05-19T17:38:34.504Z,9.13
2019-05-19T17:41:06.520Z,8.95
2019-05-19T17:43:38.606Z,9.70
2019-05-19T17:46:10.698Z,9.60
2019-05-19T17:48:42.785Z,10.90
2019-05-19T17:51:14.919Z,9.88
2019-05-19T17:53:47.029Z,9.80
2019-05-19T17:56:20.025Z,10.72
2019-05-19T17:58:52.296Z,10.78
2019-05-19T18:01:24.327Z,11.38
2019-05-19T18:03:56.383Z,10.70
2019-05-19T18:06:29.871Z,9.85
2019-05-19T18:09:02.749Z,9.75
2019-05-19T18:11:34.904Z,9.63
2019-05-19T18:14:07.025Z,9.00
2019-05-19T18:16:39.238Z,8.08
2019-05-19T18:19:11.375Z,8.28
2019-05-19T18:21:43.364Z,8.30
2019-05-19T18:24:15.453Z,8.18
2019-05-19T18:26:47.512Z,8.15
2019-05-19T18:29:30.460Z,9.90
2019-05-19T18:31:53.501Z,9.35
2019-05-19T18:34:25.590Z,8.50
2019-05-19T18:36:58.371Z,10.20
2019-05-19T18:39:30.521Z,10.28
2019-05-19T18:42:02.595Z,10.13
2019-05-19T18:44:34.770Z,11.53
2019-05-19T18:47:06.886Z,9.97
2019-05-19T18:49:39.003Z,11.47
2019-05-19T18:52:11.156Z,10.90
2019-05-19T18:54:43.406Z,12.90
2019-05-19T18:57:15.605Z,10.78
2019-05-19T18:59:48.077Z,12.60
2019-05-19T19:02:20.278Z,12.53
2019-05-19T19:04:52.455Z,11.97
2019-05-19T19:07:44.121Z,12.03
2019-05-19T19:10:16.209Z,13.37
2019-05-19T19:12:48.699Z,12.43
2019-05-19T19:15:20.769Z,12.87
2019-05-19T19:17:52.826Z,13.90
2019-05-19T19:20:24.894Z,13.25
2019-05-19T19:22:56.957Z,12.50
2019-05-19T19:25:28.993Z,13.33
2019-05-19T19:28:01.030Z,12.03
2019-05-19T19:30:33.105Z,14.83
2019-05-19T19:33:05.133Z,14.25
2019-05-19T19:35:39.633Z,20.40
2019-05-19T19:38:11.328Z,17.95
2019-05-19T19:40:43.355Z,16.43
2019-05-19T19:43:15.446Z,14.53
2019-05-19T19:45:47.479Z,13.80
2019-05-19T19:48:19.515Z,14.17
2019-05-19T19:50:51.640Z,13.73
2019-05-19T19:53:23.716Z,15.97
2019-05-19T19:55:55.731Z,16.73
2019-05-19T19:58:27.814Z,16.00
2019-05-19T20:00:59.850Z,16.07
2019-05-19T20:03:31.948Z,15.93
2019-05-19T20:06:04.070Z,15.47
2019-05-19T20:08:36.134Z,14.45
2019-05-19T20:11:08.197Z,16.30
2019-05-19T20:13:40.280Z,15.20
2019-05-19T20:16:12.369Z,15.50
2019-05-19T20:18:44.494Z,14.70
2019-05-19T20:21:16.631Z,12.60
2019-05-19T20:23:48.765Z,15.20
2019-05-19T20:26:20.781Z,16.55
2019-05-19T20:28:52.827Z,15.25
2019-05-19T20:31:24.906Z,15.20
2019-05-19T20:33:56.982Z,14.50
2019-05-19T20:36:29.033Z,15.20
2019-05-19T20:39:01.077Z,14.50
2019-05-19T20:41:33.099Z,16.33
2019-05-19T20:44:05.178Z,13.72
2019-05-19T20:46:37.232Z,14.67
2019-05-19T20:49:09.309Z,15.30
2019-05-19T20:51:41.303Z,14.17
2019-05-19T20:54:13.341Z,14.70
2019-05-19T20:56:45.358Z,14.03
2019-05-19T20:59:17.640Z,13.45
2019-05-19T21:01:49.658Z,12.37
2019-05-19T21:04:21.677Z,11.38
2019-05-19T21:06:53.699Z,11.57
2019-05-19T21:09:25.728Z,12.73
2019-05-19T21:11:57.749Z,12.93
2019-05-19T21:14:29.792Z,13.83
2019-05-19T21:17:01.822Z,13.13
2019-05-19T21:19:33.861Z,12.65
2019-05-19T21:22:05.927Z,12.28
2019-05-19T21:24:37.928Z,13.30
2019-05-19T21:27:09.931Z,13.47
2019-05-19T21:29:41.897Z,12.25
2019-05-19T21:32:13.917Z,12.58
2019-05-19T21:34:45.939Z,12.78
2019-05-19T21:37:17.961Z,13.13
2019-05-19T21:39:49.967Z,13.93
2019-05-19T21:42:21.967Z,13.47
2019-05-19T21:44:53.950Z,10.70
2019-05-19T21:47:25.970Z,10.47
2019-05-19T21:49:57.981Z,12.00
2019-05-19T21:52:29.963Z,11.20
2019-05-19T21:55:01.972Z,11.63
2019-05-19T21:57:34.001Z,11.90
2019-05-19T22:00:08.985Z,10.25
2019-05-19T22:02:41.016Z,12.27
2019-05-19T22:05:12.981Z,12.07
2019-05-19T22:08:00.385Z,11.18
2019-05-19T22:10:32.494Z,12.10
2019-05-19T22:13:04.474Z,12.47
2019-05-19T22:15:36.467Z,11.33
2019-05-19T22:18:08.458Z,11.23
2019-05-19T22:20:40.425Z,11.57
2019-05-19T22:23:12.593Z,10.90
2019-05-19T22:25:44.589Z,11.30
2019-05-19T22:28:16.594Z,11.28
2019-05-19T22:30:48.625Z,10.57
2019-05-19T22:33:20.661Z,10.30
2019-05-19T22:35:52.637Z,11.03
2019-05-19T22:38:24.661Z,11.17
2019-05-19T22:40:56.648Z,11.47
2019-05-19T22:43:28.654Z,11.57
2019-05-19T22:46:00.655Z,11.73
2019-05-19T22:48:32.634Z,10.97
2019-05-19T22:51:04.634Z,12.10
2019-05-19T22:53:36.633Z,11.47
2019-05-19T22:56:08.676Z,12.97
2019-05-19T22:58:41.638Z,13.17
2019-05-19T23:01:13.796Z,13.63
2019-05-19T23:03:45.788Z,13.03
2019-05-19T23:06:17.775Z,13.73
2019-05-19T23:08:49.824Z,13.00
2019-05-19T23:11:21.780Z,13.33
2019-05-19T23:13:53.794Z,13.80
2019-05-19T23:16:25.738Z,15.10
2019-05-19T23:18:57.701Z,14.37
2019-05-19T23:21:29.658Z,12.10
2019-05-19T23:24:01.644Z,13.43
2019-05-19T23:26:33.717Z,13.20
2019-05-19T23:29:05.734Z,12.50
2019-05-19T23:31:37.676Z,12.60
2019-05-19T23:34:09.680Z,11.27
2019-05-19T23:36:41.643Z,11.83
2019-05-19T23:39:13.640Z,12.57
2019-05-19T23:41:45.573Z,12.20
2019-05-19T23:44:17.585Z,11.00
2019-05-19T23:46:49.552Z,11.07
2019-05-19T23:49:21.552Z,11.23
2019-05-19T23:51:53.504Z,12.73
2019-05-19T23:54:25.464Z,12.53
2019-05-19T23:56:57.416Z,12.00
2019-05-19T23:59:29.388Z,11.83
